createdAt,value
2022-10-23T00:01:44.784Z,30.97
2022-10-23T00:04:20.276Z,29.82
2022-10-23T00:06:49.496Z,26.55
2022-10-23T00:09:20.906Z,27.82
2022-10-23T00:11:50.748Z,26.30
2022-10-23T00:14:23.235Z,27.58
2022-10-23T00:16:51.208Z,27.00
2022-10-23T00:19:18.970Z,31.33
2022-10-23T00:21:47.202Z,33.48
2022-10-23T00:24:17.183Z,33.70
2022-10-23T00:26:44.654Z,35.08
2022-10-23T00:29:14.631Z,35.65
2022-10-23T00:31:42.164Z,35.10
2022-10-23T00:34:10.594Z,36.42
2022-10-23T00:36:39.573Z,35.85
2022-10-23T00:39:07.753Z,33.15
2022-10-23T00:41:36.307Z,31.93
2022-10-23T00:44:12.716Z,32.23
2022-10-23T00:46:40.669Z,30.77
2022-10-23T00:49:09.650Z,29.32
2022-10-23T00:51:47.724Z,28.47
2022-10-23T00:54:23.921Z,24.45
2022-10-23T00:56:49.199Z,21.17
2022-10-23T00:59:17.230Z,18.15
2022-10-23T01:01:45.081Z,14.93
2022-10-23T01:04:12.915Z,14.07
2022-10-23T01:06:59.685Z,13.53
2022-10-23T01:10:04.656Z,13.18
2022-10-23T01:12:47.790Z,13.80
2022-10-23T01:15:43.291Z,13.78
2022-10-23T01:18:31.319Z,14.20
2022-10-23T01:21:19.572Z,14.75
2022-10-23T01:24:26.065Z,15.90
2022-10-23T01:27:27.513Z,15.55
2022-10-23T01:30:11.813Z,16.12
2022-10-23T01:33:10.129Z,16.65
2022-10-23T01:35:50.363Z,16.52
2022-10-23T01:38:28.885Z,16.25
2022-10-23T01:41:03.091Z,16.75
2022-10-23T01:43:36.250Z,16.27
2022-10-23T01:46:08.681Z,15.50
2022-10-23T01:48:40.398Z,12.93
2022-10-23T01:51:12.255Z,13.28
2022-10-23T01:53:43.023Z,13.90
2022-10-23T01:56:17.585Z,12.80
2022-10-23T01:58:48.538Z,13.48
2022-10-23T02:01:20.436Z,11.33
2022-10-23T02:03:50.329Z,11.68
2022-10-23T02:06:18.692Z,10.93
2022-10-23T02:08:46.775Z,10.35
2022-10-23T02:11:19.817Z,10.32
2022-10-23T02:14:07.878Z,9.45
2022-10-23T02:16:42.955Z,8.63
2022-10-23T02:19:30.889Z,8.03
2022-10-23T02:22:22.875Z,8.05
2022-10-23T02:24:58.833Z,8.23
2022-10-23T02:27:31.982Z,8.00
2022-10-23T02:30:05.074Z,8.70
2022-10-23T02:32:33.963Z,8.55
2022-10-23T02:35:02.328Z,8.68
2022-10-23T02:37:30.105Z,8.23
2022-10-23T02:39:58.037Z,8.30
2022-10-23T02:42:45.920Z,8.38
2022-10-23T02:45:36.299Z,8.38
2022-10-23T02:48:23.458Z,9.05
2022-10-23T02:51:11.298Z,9.43
2022-10-23T02:53:58.666Z,8.58
2022-10-23T02:56:41.848Z,9.45
2022-10-23T02:59:26.754Z,10.63
2022-10-23T03:02:03.386Z,10.68
2022-10-23T03:04:34.476Z,11.80
2022-10-23T03:07:03.218Z,10.10
2022-10-23T03:09:31.391Z,10.25
2022-10-23T03:11:59.022Z,10.32
2022-10-23T03:14:26.721Z,10.48
2022-10-23T03:16:54.382Z,10.30
2022-10-23T03:19:22.244Z,9.88
2022-10-23T03:21:49.760Z,11.05
2022-10-23T03:24:17.326Z,10.15
2022-10-23T03:26:45.211Z,10.82
2022-10-23T03:29:13.026Z,11.03
2022-10-23T03:31:42.569Z,10.28
2022-10-23T03:34:11.099Z,11.38
2022-10-23T03:36:40.720Z,11.15
2022-10-23T03:39:09.533Z,11.45
2022-10-23T03:41:37.470Z,11.85
2022-10-23T03:46:32.480Z,11.30
2022-10-23T03:48:59.965Z,10.50
2022-10-23T03:51:27.834Z,10.93
2022-10-23T03:53:55.678Z,11.90
2022-10-23T03:56:23.800Z,11.30
2022-10-23T03:58:51.343Z,11.25
2022-10-23T04:01:18.951Z,9.63
2022-10-23T04:03:46.759Z,9.78
2022-10-23T04:06:15.922Z,7.60
2022-10-23T04:08:44.729Z,7.60
2022-10-23T04:11:14.296Z,7.78
2022-10-23T04:13:43.971Z,6.70
2022-10-23T04:16:11.657Z,7.00
2022-10-23T04:18:41.260Z,6.97
2022-10-23T04:21:10.617Z,6.47
2022-10-23T04:23:38.884Z,6.33
2022-10-23T04:26:08.512Z,7.35
2022-10-23T04:28:36.581Z,8.80
2022-10-23T04:31:04.320Z,8.20
2022-10-23T04:33:32.171Z,8.15
2022-10-23T04:35:59.993Z,8.10
2022-10-23T04:38:27.671Z,9.98
2022-10-23T04:40:55.310Z,10.40
2022-10-23T04:43:23.215Z,10.65
2022-10-23T04:45:50.647Z,10.08
2022-10-23T04:48:25.482Z,11.53
2022-10-23T04:51:10.128Z,12.20
2022-10-23T04:53:51.055Z,13.32
2022-10-23T04:56:20.719Z,13.20
2022-10-23T04:58:50.086Z,14.40
2022-10-23T05:01:18.084Z,14.78
2022-10-23T05:03:45.739Z,14.47
2022-10-23T05:06:13.793Z,16.40
2022-10-23T05:08:48.994Z,14.38
2022-10-23T05:13:52.237Z,15.85
2022-10-23T05:16:41.012Z,15.98
2022-10-23T05:19:13.282Z,15.65
2022-10-23T05:21:41.540Z,15.80
2022-10-23T05:24:12.765Z,16.45
2022-10-23T05:26:40.418Z,16.30
2022-10-23T05:29:08.794Z,15.88
2022-10-23T05:31:36.568Z,15.98
2022-10-23T05:34:09.849Z,16.57
2022-10-23T05:36:38.358Z,16.65
2022-10-23T05:39:06.739Z,17.32
2022-10-23T05:41:34.684Z,17.92
2022-10-23T05:44:02.988Z,18.52
2022-10-23T05:46:48.600Z,17.98
2022-10-23T05:49:20.653Z,20.08
2022-10-23T05:51:53.400Z,17.37
2022-10-23T05:54:20.907Z,18.37
2022-10-23T05:57:04.290Z,16.90
2022-10-23T05:59:33.933Z,17.73
2022-10-23T06:02:03.469Z,19.12
2022-10-23T06:04:36.028Z,16.40
2022-10-23T06:07:12.388Z,17.17
2022-10-23T06:09:40.291Z,18.92
2022-10-23T06:12:08.007Z,18.77
2022-10-23T06:14:35.789Z,17.25
2022-10-23T06:17:03.875Z,18.17
2022-10-23T06:19:36.061Z,16.60
2022-10-23T06:22:05.314Z,17.48
2022-10-23T06:24:34.833Z,16.23
2022-10-23T06:27:04.784Z,17.10
2022-10-23T06:29:37.040Z,19.32
2022-10-23T06:32:05.279Z,17.07
2022-10-23T06:34:33.209Z,16.48
2022-10-23T06:37:01.031Z,21.90
2022-10-23T06:39:42.144Z,20.68
2022-10-23T06:42:12.288Z,18.48
2022-10-23T06:44:54.440Z,18.92
2022-10-23T06:47:23.793Z,18.92
2022-10-23T06:52:47.460Z,16.55
2022-10-23T06:55:12.308Z,17.65
2022-10-23T06:57:40.238Z,17.00
2022-10-23T07:00:09.626Z,17.55
2022-10-23T07:02:39.839Z,17.85
2022-10-23T07:05:11.269Z,17.00
2022-10-23T07:07:37.838Z,16.80
2022-10-23T07:10:06.742Z,17.07
2022-10-23T07:12:36.242Z,19.07
2022-10-23T07:15:08.944Z,16.75
2022-10-23T07:17:36.981Z,18.30
2022-10-23T07:20:07.688Z,17.65
2022-10-23T07:22:36.727Z,19.15
2022-10-23T07:25:09.437Z,18.17
2022-10-23T07:27:39.663Z,19.75
2022-10-23T07:30:10.203Z,19.15
2022-10-23T07:32:48.361Z,18.20
2022-10-23T07:38:08.250Z,18.30
2022-10-23T07:40:37.778Z,19.12
2022-10-23T07:43:06.019Z,18.37
2022-10-23T07:45:33.453Z,20.23
2022-10-23T07:48:03.063Z,20.10
2022-10-23T07:50:33.042Z,20.65
2022-10-23T07:53:00.690Z,21.70
2022-10-23T07:55:30.790Z,21.70
2022-10-23T07:58:01.024Z,18.87
2022-10-23T08:00:34.096Z,18.23
2022-10-23T08:03:06.963Z,18.23
2022-10-23T08:05:35.067Z,21.00
2022-10-23T08:08:03.328Z,20.25
2022-10-23T08:10:31.836Z,21.60
2022-10-23T08:13:00.593Z,18.35
2022-10-23T08:15:30.287Z,18.65
2022-10-23T08:17:59.671Z,18.17
2022-10-23T08:20:29.166Z,18.90
2022-10-23T08:22:57.668Z,20.32
2022-10-23T08:25:26.108Z,20.48
2022-10-23T08:27:54.211Z,29.37
2022-10-23T08:30:23.546Z,22.05
2022-10-23T08:32:50.913Z,20.20
2022-10-23T08:35:20.584Z,20.17
2022-10-23T08:37:50.932Z,20.85
2022-10-23T08:40:22.809Z,20.90
2022-10-23T08:43:02.902Z,21.35
2022-10-23T08:45:41.860Z,21.23
2022-10-23T08:48:50.887Z,20.30
2022-10-23T08:51:45.023Z,20.72
2022-10-23T08:54:18.628Z,20.32
2022-10-23T08:57:00.540Z,19.85
2022-10-23T08:59:38.063Z,20.23
2022-10-23T09:02:25.378Z,19.25
2022-10-23T09:04:55.712Z,21.12
2022-10-23T09:08:01.766Z,21.90
2022-10-23T09:10:54.629Z,28.47
2022-10-23T09:13:54.887Z,23.87
2022-10-23T09:16:44.567Z,24.30
2022-10-23T09:19:19.282Z,22.13
2022-10-23T09:21:50.288Z,17.82
2022-10-23T09:24:22.829Z,20.75
2022-10-23T09:26:53.372Z,20.25
2022-10-23T09:29:28.419Z,28.92
2022-10-23T09:31:59.449Z,18.55
2022-10-23T09:34:29.853Z,18.87
2022-10-23T09:37:04.345Z,22.35
2022-10-23T09:39:35.067Z,20.23
2022-10-23T09:42:19.785Z,19.65
2022-10-23T09:44:50.496Z,22.25
2022-10-23T09:47:22.100Z,18.37
2022-10-23T09:49:53.303Z,20.80
2022-10-23T09:52:40.534Z,19.98
2022-10-23T09:55:25.041Z,19.90
2022-10-23T09:57:55.049Z,19.80
2022-10-23T10:00:26.519Z,20.60
2022-10-23T10:03:01.430Z,21.82
2022-10-23T10:05:44.331Z,22.98
2022-10-23T10:08:31.534Z,20.85
2022-10-23T10:11:17.001Z,20.88
2022-10-23T10:14:25.176Z,20.03
2022-10-23T10:17:32.026Z,20.12
2022-10-23T10:20:19.808Z,19.15
2022-10-23T10:22:55.762Z,19.23
2022-10-23T10:25:51.304Z,20.32
2022-10-23T10:29:00.746Z,19.35
2022-10-23T10:32:02.297Z,17.80
2022-10-23T10:34:44.082Z,19.32
2022-10-23T10:37:47.344Z,18.15
2022-10-23T10:40:37.728Z,19.57
2022-10-23T10:43:32.092Z,20.05
2022-10-23T10:46:10.975Z,21.12
2022-10-23T10:48:56.438Z,20.55
2022-10-23T10:51:56.526Z,20.02
2022-10-23T10:54:46.191Z,19.90
2022-10-23T10:57:22.131Z,19.17
2022-10-23T10:59:53.209Z,18.27
2022-10-23T11:02:40.892Z,18.92
2022-10-23T11:05:44.212Z,20.52
2022-10-23T11:08:49.811Z,19.80
2022-10-23T11:11:18.193Z,22.15
2022-10-23T11:13:46.193Z,18.85
2022-10-23T11:16:31.643Z,19.75
2022-10-23T11:19:22.177Z,20.10
2022-10-23T11:22:04.153Z,16.62
2022-10-23T11:24:55.841Z,17.73
2022-10-23T11:27:37.814Z,17.82
2022-10-23T11:30:42.741Z,17.20
2022-10-23T11:33:51.886Z,18.42
2022-10-23T11:36:40.449Z,17.42
2022-10-23T11:39:24.888Z,16.77
2022-10-23T11:42:06.211Z,18.82
2022-10-23T11:44:49.068Z,19.00
2022-10-23T11:47:39.280Z,19.60
2022-10-23T11:53:14.830Z,19.87
2022-10-23T11:55:31.463Z,23.05
2022-10-23T11:58:28.337Z,18.35
2022-10-23T12:01:07.539Z,17.15
2022-10-23T12:03:59.710Z,18.45
2022-10-23T12:06:45.548Z,15.70
2022-10-23T12:09:44.045Z,16.62
2022-10-23T12:12:19.827Z,16.82
2022-10-23T12:14:50.269Z,17.85
2022-10-23T12:17:29.584Z,16.70
2022-10-23T12:20:14.875Z,19.80
2022-10-23T12:22:59.931Z,15.90
2022-10-23T12:26:06.333Z,15.88
2022-10-23T12:29:00.839Z,15.05
2022-10-23T12:32:13.465Z,16.77
2022-10-23T12:35:08.397Z,17.95
2022-10-23T12:38:08.659Z,16.45
2022-10-23T12:40:36.673Z,19.02
2022-10-23T12:43:25.099Z,15.72
2022-10-23T12:45:56.863Z,16.10
2022-10-23T12:48:28.586Z,15.58
2022-10-23T12:50:59.682Z,15.20
2022-10-23T12:53:27.817Z,15.65
2022-10-23T12:56:05.703Z,15.55
2022-10-23T12:58:35.110Z,13.93
2022-10-23T13:01:07.381Z,16.00
2022-10-23T13:03:36.132Z,17.45
2022-10-23T13:06:06.289Z,14.03
2022-10-23T13:08:44.606Z,13.78
2022-10-23T13:11:18.226Z,12.90
2022-10-23T13:13:46.652Z,13.03
2022-10-23T13:16:26.569Z,13.50
2022-10-23T13:18:54.171Z,13.05
2022-10-23T13:21:25.615Z,12.35
2022-10-23T13:23:54.703Z,13.80
2022-10-23T13:26:42.426Z,15.08
2022-10-23T13:31:52.539Z,14.58
2022-10-23T13:34:29.397Z,15.13
2022-10-23T13:37:23.194Z,17.92
2022-10-23T13:40:10.608Z,15.88
2022-10-23T13:42:38.600Z,13.60
2022-10-23T13:45:11.818Z,14.43
2022-10-23T13:47:39.891Z,14.25
2022-10-23T13:50:10.228Z,14.38
2022-10-23T13:52:39.629Z,14.18
2022-10-23T13:55:25.348Z,13.80
2022-10-23T13:57:53.360Z,14.63
2022-10-23T14:00:21.830Z,19.12
2022-10-23T14:02:49.268Z,18.60
2022-10-23T14:05:17.068Z,26.87
2022-10-23T14:07:44.977Z,20.27
2022-10-23T14:10:13.003Z,12.80
2022-10-23T14:12:42.639Z,14.00
2022-10-23T14:15:11.623Z,14.25
2022-10-23T14:17:39.439Z,71.77
2022-10-23T14:20:08.575Z,22.62
2022-10-23T14:22:36.696Z,16.80
2022-10-23T14:25:24.195Z,15.35
2022-10-23T14:27:51.814Z,29.92
2022-10-23T14:30:19.675Z,19.12
2022-10-23T14:32:47.775Z,12.28
2022-10-23T14:35:15.664Z,12.82
2022-10-23T14:37:43.610Z,10.80
2022-10-23T14:40:11.457Z,12.05
2022-10-23T14:42:39.224Z,12.78
2022-10-23T14:45:07.971Z,12.93
2022-10-23T14:47:36.453Z,15.10
2022-10-23T14:50:04.898Z,14.28
2022-10-23T14:52:32.806Z,14.98
2022-10-23T14:55:01.126Z,15.25
2022-10-23T14:57:28.662Z,18.05
2022-10-23T14:59:56.008Z,18.40
2022-10-23T15:02:23.756Z,17.45
2022-10-23T15:04:51.101Z,18.92
2022-10-23T15:07:18.569Z,19.60
2022-10-23T15:09:46.271Z,20.92
2022-10-23T15:12:13.757Z,20.55
2022-10-23T15:14:41.301Z,20.02
2022-10-23T15:17:15.379Z,21.70
2022-10-23T15:19:39.758Z,23.57
2022-10-23T15:22:07.228Z,23.42
2022-10-23T15:24:35.579Z,22.35
2022-10-23T15:27:04.888Z,20.80
2022-10-23T15:29:32.287Z,20.40
2022-10-23T15:32:01.467Z,22.13
2022-10-23T15:34:29.525Z,20.85
2022-10-23T15:36:58.218Z,22.87
2022-10-23T15:39:34.965Z,23.80
2022-10-23T15:42:05.700Z,22.00
2022-10-23T15:44:34.112Z,24.27
2022-10-23T15:47:01.837Z,24.23
2022-10-23T15:49:30.052Z,24.32
2022-10-23T15:51:58.064Z,23.50
2022-10-23T15:54:28.179Z,25.62
2022-10-23T15:56:55.090Z,42.80
2022-10-23T15:59:24.664Z,36.17
2022-10-23T16:01:52.886Z,43.02
2022-10-23T16:04:20.837Z,51.92
2022-10-23T16:06:48.763Z,40.05
2022-10-23T16:09:16.232Z,30.50
2022-10-23T16:11:44.579Z,33.33
2022-10-23T16:14:14.772Z,31.50
2022-10-23T16:16:42.765Z,34.85
2022-10-23T16:19:11.565Z,48.60
2022-10-23T16:21:41.169Z,51.73
2022-10-23T16:24:09.804Z,45.10
2022-10-23T16:26:39.608Z,44.30
2022-10-23T16:29:08.765Z,44.58
2022-10-23T16:31:38.854Z,52.27
2022-10-23T16:34:07.247Z,53.63
2022-10-23T16:36:37.967Z,52.98
2022-10-23T16:39:20.463Z,48.33
2022-10-23T16:42:06.618Z,46.92
2022-10-23T16:44:41.789Z,42.23
2022-10-23T16:47:10.069Z,40.35
2022-10-23T16:49:37.458Z,38.20
2022-10-23T16:52:05.006Z,39.98
2022-10-23T16:54:33.300Z,38.33
2022-10-23T16:57:00.661Z,38.23
2022-10-23T16:59:28.443Z,37.38
2022-10-23T17:01:56.816Z,39.50
2022-10-23T17:04:24.999Z,37.88
2022-10-23T17:06:55.265Z,39.33
2022-10-23T17:09:23.422Z,46.13
2022-10-23T17:11:52.888Z,43.98
2022-10-23T17:14:20.737Z,49.08
2022-10-23T17:16:52.264Z,47.65
2022-10-23T17:19:43.717Z,56.08
2022-10-23T17:21:55.006Z,53.60
2022-10-23T17:24:23.592Z,56.08
2022-10-23T17:26:56.945Z,58.95
2022-10-23T17:29:24.542Z,61.05
2022-10-23T17:31:52.245Z,72.65
2022-10-23T17:34:22.753Z,74.32
2022-10-23T17:36:53.921Z,81.35
2022-10-23T17:39:26.030Z,80.67
2022-10-23T17:41:56.450Z,61.63
2022-10-23T17:44:24.556Z,51.63
2022-10-23T17:46:54.360Z,46.85
2022-10-23T17:49:23.886Z,49.67
2022-10-23T17:51:57.257Z,50.03
2022-10-23T17:54:26.590Z,54.77
2022-10-23T17:56:56.397Z,54.53
2022-10-23T17:59:24.402Z,54.15
2022-10-23T18:01:53.012Z,56.63
2022-10-23T18:04:23.127Z,51.70
2022-10-23T18:06:53.230Z,51.08
2022-10-23T18:09:22.307Z,54.93
2022-10-23T18:11:51.207Z,58.45
2022-10-23T18:14:21.659Z,64.72
2022-10-23T18:16:50.477Z,65.05
2022-10-23T18:19:19.316Z,62.60
2022-10-23T18:21:49.086Z,61.05
2022-10-23T18:24:20.115Z,60.43
2022-10-23T18:26:48.191Z,61.98
2022-10-23T18:29:16.887Z,62.30
2022-10-23T18:31:47.678Z,60.90
2022-10-23T18:34:23.327Z,57.55
2022-10-23T18:36:53.251Z,57.67
2022-10-23T18:39:24.740Z,49.80
2022-10-23T18:41:56.806Z,47.48
2022-10-23T18:44:28.088Z,47.17
2022-10-23T18:46:58.753Z,44.15
2022-10-23T18:49:27.446Z,41.15
2022-10-23T18:51:55.073Z,39.60
2022-10-23T18:54:22.685Z,36.68
2022-10-23T18:56:50.728Z,35.33
2022-10-23T18:59:22.790Z,35.25
2022-10-23T19:01:52.194Z,34.65
2022-10-23T19:04:22.590Z,33.83
2022-10-23T19:06:52.066Z,34.78
2022-10-23T19:09:20.473Z,34.73
2022-10-23T19:11:48.400Z,40.70
2022-10-23T19:14:18.064Z,48.87
2022-10-23T19:17:02.352Z,38.90
2022-10-23T19:19:47.068Z,34.63
2022-10-23T19:22:18.083Z,34.90
2022-10-23T19:24:57.532Z,35.78
2022-10-23T19:27:26.710Z,36.50
2022-10-23T19:29:56.644Z,32.33
2022-10-23T19:32:26.572Z,37.17
2022-10-23T19:34:54.500Z,37.33
2022-10-23T19:37:24.379Z,36.63
2022-10-23T19:39:54.433Z,43.50
2022-10-23T19:42:22.422Z,34.10
2022-10-23T19:44:50.624Z,33.13
2022-10-23T19:47:18.557Z,32.53
2022-10-23T19:49:46.170Z,28.85
2022-10-23T19:52:14.241Z,41.00
2022-10-23T19:54:42.382Z,35.33
2022-10-23T19:57:11.204Z,28.52
2022-10-23T19:59:39.074Z,25.50
2022-10-23T20:02:07.940Z,25.05
2022-10-23T20:04:36.097Z,23.62
2022-10-23T20:07:04.241Z,25.12
2022-10-23T20:09:32.249Z,23.42
2022-10-23T20:12:00.051Z,25.43
2022-10-23T20:14:28.128Z,23.18
2022-10-23T20:16:56.451Z,24.67
2022-10-23T20:19:24.403Z,24.90
2022-10-23T20:21:52.387Z,35.43
2022-10-23T20:24:21.313Z,25.80
2022-10-23T20:26:53.354Z,23.73
2022-10-23T20:29:22.049Z,23.12
2022-10-23T20:31:50.185Z,23.00
2022-10-23T20:34:19.904Z,22.55
2022-10-23T20:36:49.489Z,23.25
2022-10-23T20:39:23.552Z,22.93
2022-10-23T20:41:51.637Z,22.82
2022-10-23T20:44:19.751Z,25.10
2022-10-23T20:46:48.447Z,24.57
2022-10-23T20:49:16.641Z,23.02
2022-10-23T20:51:44.743Z,22.37
2022-10-23T20:54:12.619Z,23.07
2022-10-23T20:56:40.763Z,24.85
2022-10-23T20:59:16.803Z,22.10
2022-10-23T21:01:50.876Z,24.35
2022-10-23T21:04:23.779Z,23.55
2022-10-23T21:07:10.488Z,23.10
2022-10-23T21:09:24.336Z,24.67
2022-10-23T21:11:52.272Z,24.57
2022-10-23T21:14:19.963Z,25.60
2022-10-23T21:16:50.387Z,24.87
2022-10-23T21:19:18.863Z,23.42
2022-10-23T21:21:46.645Z,24.10
2022-10-23T21:24:17.008Z,22.65
2022-10-23T21:26:45.641Z,21.55
2022-10-23T21:29:19.132Z,20.32
2022-10-23T21:31:48.199Z,20.25
2022-10-23T21:34:19.807Z,20.60
2022-10-23T21:37:11.407Z,19.48
2022-10-23T21:39:17.371Z,20.10
2022-10-23T21:41:45.203Z,19.50
2022-10-23T21:44:15.061Z,17.67
2022-10-23T21:46:43.698Z,18.37
2022-10-23T21:49:11.754Z,18.25
2022-10-23T21:51:41.545Z,17.87
2022-10-23T21:54:12.790Z,18.85
2022-10-23T21:56:47.709Z,18.73
2022-10-23T21:59:19.498Z,20.75
2022-10-23T22:01:48.699Z,19.77
2022-10-23T22:04:18.528Z,20.20
2022-10-23T22:06:49.130Z,20.27
2022-10-23T22:09:19.834Z,20.08
2022-10-23T22:11:53.367Z,20.02
2022-10-23T22:14:22.767Z,20.17
2022-10-23T22:16:51.754Z,20.35
2022-10-23T22:19:21.854Z,19.50
2022-10-23T22:21:51.096Z,19.37
2022-10-23T22:24:19.109Z,21.73
2022-10-23T22:26:51.221Z,21.50
2022-10-23T22:29:23.546Z,22.95
2022-10-23T22:31:51.552Z,21.12
2022-10-23T22:36:54.318Z,21.07
2022-10-23T22:39:22.301Z,18.73
2022-10-23T22:41:50.312Z,19.82
2022-10-23T22:44:18.110Z,19.20
2022-10-23T22:46:46.049Z,17.98
2022-10-23T22:49:13.483Z,16.82
2022-10-23T22:51:41.033Z,17.80
2022-10-23T22:54:09.455Z,18.73
2022-10-23T22:56:36.925Z,20.57
2022-10-23T22:59:05.124Z,19.55
2022-10-23T23:01:37.619Z,20.43
2022-10-23T23:04:19.732Z,20.68
2022-10-23T23:06:35.530Z,21.65
2022-10-23T23:09:03.624Z,20.15
2022-10-23T23:11:37.090Z,20.77
2022-10-23T23:14:02.929Z,21.23
2022-10-23T23:16:31.877Z,20.25
2022-10-23T23:19:01.685Z,16.95
2022-10-23T23:21:30.581Z,18.20
2022-10-23T23:23:58.906Z,16.00
2022-10-23T23:26:26.821Z,15.70
2022-10-23T23:28:54.725Z,17.23
2022-10-23T23:31:25.865Z,16.37
2022-10-23T23:33:54.339Z,18.05
2022-10-23T23:36:27.792Z,17.12
2022-10-23T23:38:57.392Z,16.15
2022-10-23T23:41:26.189Z,16.45
2022-10-23T23:43:56.376Z,16.27
2022-10-23T23:46:25.394Z,16.45
2022-10-23T23:48:53.267Z,15.50
2022-10-23T23:51:23.878Z,16.02
2022-10-23T23:53:52.160Z,15.48
2022-10-23T23:56:20.610Z,16.27
2022-10-23T23:58:48.573Z,15.53
